KRSW/RSW METAR and TAF weather

Enter ICAO airport designator
Station Type Date Time Source
KRSW METAR 2022/09/28 20:06 UTC NOAA

KRSW 282006Z AUTO 19056G83KT 1 1/4SM RA BR 25/24 A2884 RMK AO2 PK WND 20083/2003 LTG DSNT N P0005 T02500244


Station Type Date Time Source
KRSW Decoded METAR 2022/09/28 20:06 UTC NOAA

FORT MYERS SW FL INTERNATIONAL AIRPORT , FL, United States (KRSW) 26-32N 081-46W 9M
Sep 28, 2022 - 04:06 PM EDT / 2022.09.28 2006 UTC
Wind: from the S (190 degrees) at 64 MPH (56 KT) gusting to 96 MPH (83 KT):1
Visibility: 1 1/4 mile(s):0
Weather: rain; mist; Lightning observed
Precipitation last hour: 0.05 inches
Temperature: 77.0 F (25.0 C)
Dew Point: 75.9 F (24.4 C)
Relative Humidity: 96%
Pressure (altimeter): 28.84 in. Hg (976 hPa)
ob: KRSW 282006Z AUTO 19056G83KT 1 1/4SM RA BR 25/24 A2884 RMK AO2 PK WND 20083/2003 LTG DSNT N P0005 T02500244
cycle: 20

Station Type Date Time Source
KRSW TAF 2022/10/01 07:36 UTC NOAA

TAF
AMD KRSW 010633Z 0107/0206 01005KT P6SM SCT040
FM011900 28007KT P6SM FEW250
FM020000 33003KT P6SM FEW040

Example: see airport list